Time;durP1;ratioP1;P1;durP2;ratioP2;P2;SDS_P1;SDS_P2;PMS_P1;PMS_P2;Temp;Humidity;BMP_temperature;BMP_pressure;BME280_temperature;BME280_humidity;BME280_pressure;Samples;Min_cycle;Max_cycle;Signal;HPM_P1;HPM_P2
2023/04/02 00:00:04;;;;;;;;;;;9.50;99.90;;;;;;7330116;19;110087;-72
2023/04/02 00:02:31;;;;;;;;;;;9.50;99.90;;;;;;7330814;19;109149;-70
2023/04/02 00:05:15;;;;;;;;;;;9.60;99.90;;;;;;7330037;19;110031;-70
2023/04/02 00:07:43;;;;;;;;;;;9.60;99.90;;;;;;7333450;19;110631;-71
2023/04/02 00:10:25;;;;;;;;;;;9.60;99.90;;;;;;7330338;19;108888;-69
2023/04/02 00:13:04;;;;;;;;;;;9.60;99.90;;;;;;7328760;19;109493;-70
2023/04/02 00:15:32;;;;;;;;;;;9.70;99.90;;;;;;7331778;19;108861;-70
2023/04/02 00:18:00;;;;;;;;;;;9.70;99.90;;;;;;7329288;19;113629;-70
2023/04/02 00:20:29;;;;;;;;;;;9.70;99.90;;;;;;7333070;19;110411;-70
2023/04/02 00:22:56;;;;;;;;;;;9.70;99.90;;;;;;7331847;19;109217;-69
2023/04/02 00:25:25;;;;;;;;;;;9.70;99.90;;;;;;7333142;19;108740;-70
2023/04/02 00:27:53;;;;;;;;;;;9.70;99.90;;;;;;7330054;19;109131;-70
2023/04/02 00:30:21;;;;;;;;;;;9.70;99.90;;;;;;7338723;19;109553;-74
2023/04/02 00:32:48;;;;;;;;;;;9.60;99.90;;;;;;7328630;19;110563;-77
2023/04/02 00:35:19;;;;;;;;;;;9.60;99.90;;;;;;7332398;19;111024;-77
2023/04/02 00:37:46;;;;;;;;;;;9.60;99.90;;;;;;7329587;19;109478;-70
2023/04/02 00:40:21;;;;;;;;;;;9.60;99.90;;;;;;7332576;19;109856;-70
2023/04/02 00:42:48;;;;;;;;;;;9.70;99.90;;;;;;7332831;19;108829;-70
2023/04/02 00:45:20;;;;;;;;;;;9.60;99.90;;;;;;7332741;19;109632;-72
2023/04/02 00:47:47;;;;;;;;;;;9.60;99.90;;;;;;7331453;19;109464;-70
2023/04/02 00:50:14;;;;;;;;;;;9.50;99.90;;;;;;7328896;19;111220;-71
2023/04/02 00:52:43;;;;;;;;;;;9.50;99.90;;;;;;7337859;19;108650;-70
2023/04/02 00:55:22;;;;;;;;;;;9.30;99.90;;;;;;7332433;19;108490;-70
2023/04/02 00:57:49;;;;;;;;;;;9.30;99.90;;;;;;7331647;19;109160;-70
2023/04/02 01:00:28;;;;;;;;;;;9.30;99.90;;;;;;7333086;19;110696;-70
2023/04/02 01:03:15;;;;;;;;;;;9.30;99.90;;;;;;7331914;19;111530;-69
2023/04/02 01:05:44;;;;;;;;;;;9.20;99.90;;;;;;7331161;19;109004;-69
2023/04/02 01:08:11;;;;;;;;;;;9.30;99.90;;;;;;7332658;19;111370;-69
2023/04/02 01:10:56;;;;;;;;;;;9.10;99.90;;;;;;7331931;19;108647;-70
2023/04/02 01:13:37;;;;;;;;;;;9.00;99.90;;;;;;7333309;19;110202;-71
2023/04/02 01:16:23;;;;;;;;;;;9.00;99.90;;;;;;7336903;19;109910;-70
2023/04/02 01:19:07;;;;;;;;;;;9.00;99.90;;;;;;7337672;19;110590;-69
2023/04/02 01:21:45;;;;;;;;;;;9.10;99.90;;;;;;7338125;19;110465;-69
2023/04/02 01:24:12;;;;;;;;;;;9.20;99.90;;;;;;7339785;19;108699;-69
2023/04/02 01:26:44;;;;;;;;;;;9.10;99.90;;;;;;7339562;19;108837;-69
2023/04/02 01:29:16;;;;;;;;;;;9.00;99.90;;;;;;7336439;19;110454;-69
2023/04/02 01:31:44;;;;;;;;;;;9.00;99.90;;;;;;7336660;19;109537;-69
2023/04/02 01:34:13;;;;;;;;;;;9.10;99.90;;;;;;7339237;19;109457;-69
2023/04/02 01:36:40;;;;;;;;;;;9.00;99.90;;;;;;7338208;19;111311;-70
2023/04/02 01:39:11;;;;;;;;;;;9.00;99.90;;;;;;7343665;19;108913;-69
2023/04/02 01:41:42;;;;;;;;;;;9.00;99.90;;;;;;7338179;19;109335;-69
2023/04/02 01:44:14;;;;;;;;;;;8.90;99.90;;;;;;7340462;19;113352;-70
2023/04/02 01:46:41;;;;;;;;;;;8.90;99.90;;;;;;7336361;19;110179;-69
2023/04/02 01:49:13;;;;;;;;;;;8.90;99.90;;;;;;7333511;19;109306;-70
2023/04/02 01:51:44;;;;;;;;;;;8.90;99.90;;;;;;7338450;19;109685;-69
2023/04/02 01:54:12;;;;;;;;;;;8.70;99.90;;;;;;7338107;19;108568;-69
2023/04/02 01:56:40;;;;;;;;;;;8.70;99.90;;;;;;7334614;19;109986;-70
2023/04/02 01:59:09;;;;;;;;;;;8.60;99.90;;;;;;7341798;19;109719;-69
2023/04/02 02:01:53;;;;;;;;;;;8.50;99.90;;;;;;7336607;19;109338;-70
2023/04/02 02:04:20;;;;;;;;;;;8.60;99.90;;;;;;7338568;19;109922;-69
2023/04/02 02:06:48;;;;;;;;;;;8.60;99.90;;;;;;7335041;19;109267;-69
2023/04/02 02:09:18;;;;;;;;;;;8.60;99.90;;;;;;7334987;19;109110;-69
2023/04/02 02:11:46;;;;;;;;;;;8.50;99.90;;;;;;7336541;19;109049;-70
2023/04/02 02:14:15;;;;;;;;;;;8.50;99.90;;;;;;7338254;19;109976;-69
2023/04/02 02:16:42;;;;;;;;;;;8.60;99.90;;;;;;7337463;19;109857;-69
2023/04/02 02:19:31;;;;;;;;;;;8.60;99.90;;;;;;7337858;19;109027;-69
2023/04/02 02:22:21;;;;;;;;;;;8.70;99.90;;;;;;7342374;19;108291;-69
2023/04/02 02:24:48;;;;;;;;;;;8.70;99.90;;;;;;7337717;19;110322;-69
2023/04/02 02:27:21;;;;;;;;;;;8.70;99.90;;;;;;7336169;19;108536;-69
2023/04/02 02:29:51;;;;;;;;;;;8.80;99.90;;;;;;7338015;19;111018;-69
2023/04/02 02:32:19;;;;;;;;;;;8.70;99.90;;;;;;7334609;19;108832;-69
2023/04/02 02:35:07;;;;;;;;;;;8.60;99.90;;;;;;7337760;19;108580;-70
2023/04/02 02:37:36;;;;;;;;;;;8.60;99.90;;;;;;7335169;19;110365;-69
2023/04/02 02:40:08;;;;;;;;;;;8.50;99.90;;;;;;7337042;19;108907;-69
2023/04/02 02:42:38;;;;;;;;;;;8.50;99.90;;;;;;7335681;19;108709;-70
2023/04/02 02:45:06;;;;;;;;;;;8.50;99.90;;;;;;7332308;19;110205;-70
2023/04/02 02:47:34;;;;;;;;;;;8.50;99.90;;;;;;7334755;19;109482;-70
2023/04/02 02:50:05;;;;;;;;;;;8.40;99.90;;;;;;7336192;19;110486;-71
2023/04/02 02:52:35;;;;;;;;;;;8.30;99.90;;;;;;7338019;19;108990;-69
2023/04/02 02:55:07;;;;;;;;;;;8.30;99.90;;;;;;7334396;19;109067;-73
2023/04/02 02:57:39;;;;;;;;;;;8.30;99.90;;;;;;7334500;19;109157;-74
2023/04/02 03:00:08;;;;;;;;;;;8.30;99.90;;;;;;7338154;19;109153;-76
2023/04/02 03:02:37;;;;;;;;;;;8.30;99.90;;;;;;7334841;19;109621;-74
2023/04/02 03:05:06;;;;;;;;;;;8.20;99.90;;;;;;7333120;19;109306;-70
2023/04/02 03:07:33;;;;;;;;;;;8.30;99.90;;;;;;7352011;19;108753;-87
2023/04/02 03:10:00;;;;;;;;;;;8.30;99.90;;;;;;7377597;19;109178;-87
2023/04/02 03:12:33;;;;;;;;;;;8.30;99.90;;;;;;7358522;19;108863;-86
2023/04/02 03:15:12;;;;;;;;;;;8.30;99.90;;;;;;7342037;19;112321;-86
2023/04/02 03:17:44;;;;;;;;;;;8.20;99.90;;;;;;7339386;19;110518;-86
2023/04/02 03:20:14;;;;;;;;;;;8.20;99.90;;;;;;7339568;19;108817;-86
2023/04/02 03:22:55;;;;;;;;;;;8.20;99.90;;;;;;7338702;19;109552;-87
2023/04/02 03:25:26;;;;;;;;;;;8.20;99.90;;;;;;7337083;19;110581;-86
2023/04/02 03:27:58;;;;;;;;;;;8.20;99.90;;;;;;7336311;19;109046;-86
2023/04/02 03:30:25;;;;;;;;;;;8.20;99.90;;;;;;7342253;19;109451;-86
2023/04/02 03:32:56;;;;;;;;;;;8.20;99.90;;;;;;7335830;19;109439;-86
2023/04/02 03:35:26;;;;;;;;;;;8.20;99.90;;;;;;7341319;19;109855;-86
2023/04/02 03:37:58;;;;;;;;;;;8.10;99.90;;;;;;7332490;19;110984;-86
2023/04/02 03:40:31;;;;;;;;;;;8.10;99.90;;;;;;7336884;19;110390;-86
2023/04/02 03:43:24;;;;;;;;;;;8.10;99.90;;;;;;7338772;19;110227;-86
2023/04/02 03:45:55;;;;;;;;;;;8.20;99.90;;;;;;7335957;19;110250;-87
2023/04/02 03:48:48;;;;;;;;;;;8.30;99.90;;;;;;7336686;19;113486;-86
2023/04/02 03:51:27;;;;;;;;;;;8.30;99.90;;;;;;7339129;19;110935;-86
2023/04/02 03:53:55;;;;;;;;;;;8.40;99.90;;;;;;7338649;19;108855;-86
2023/04/02 03:56:30;;;;;;;;;;;8.40;99.90;;;;;;7336574;19;110523;-87
2023/04/02 03:59:05;;;;;;;;;;;8.30;99.90;;;;;;7334566;19;110860;-87
2023/04/02 04:01:35;;;;;;;;;;;8.30;99.90;;;;;;7331622;19;108443;-86
2023/04/02 04:04:04;;;;;;;;;;;8.20;99.90;;;;;;7334966;19;108665;-86
2023/04/02 04:06:33;;;;;;;;;;;8.20;99.90;;;;;;7338352;19;110194;-85
2023/04/02 04:09:00;;;;;;;;;;;8.00;99.90;;;;;;7334934;19;108913;-86
2023/04/02 04:11:32;;;;;;;;;;;7.90;99.90;;;;;;7336194;19;110533;-86
2023/04/02 04:14:02;;;;;;;;;;;7.90;99.90;;;;;;7339689;19;110125;-86
2023/04/02 04:16:33;;;;;;;;;;;8.00;99.90;;;;;;7333336;19;109599;-85
2023/04/02 04:19:06;;;;;;;;;;;8.00;99.90;;;;;;7333942;19;110136;-84
2023/04/02 04:21:36;;;;;;;;;;;7.90;99.90;;;;;;7334226;19;108806;-86
2023/04/02 04:24:26;;;;;;;;;;;7.90;99.90;;;;;;7333552;19;112152;-86
2023/04/02 04:26:53;;;;;;;;;;;7.90;99.90;;;;;;7335294;19;110599;-85
2023/04/02 04:29:29;;;;;;;;;;;7.80;99.90;;;;;;7335780;19;110228;-85
2023/04/02 04:31:57;;;;;;;;;;;7.70;99.90;;;;;;7331174;19;113754;-85
2023/04/02 04:34:41;;;;;;;;;;;7.70;99.90;;;;;;7334210;19;110547;-86
2023/04/02 04:37:20;;;;;;;;;;;7.80;99.90;;;;;;7340531;19;109390;-86
2023/04/02 04:39:59;;;;;;;;;;;7.80;99.90;;;;;;7337909;19;109951;-85
2023/04/02 04:42:29;;;;;;;;;;;7.80;99.90;;;;;;7334410;19;108674;-85
2023/04/02 04:45:12;;;;;;;;;;;7.90;99.90;;;;;;7334540;19;108777;-86
2023/04/02 04:47:42;;;;;;;;;;;7.90;99.90;;;;;;7333456;19;110152;-86
2023/04/02 04:50:15;;;;;;;;;;;7.90;99.90;;;;;;7337740;19;109307;-85
2023/04/02 04:52:43;;;;;;;;;;;7.90;99.90;;;;;;7339567;19;111283;-85
2023/04/02 04:55:21;;;;;;;;;;;7.80;99.90;;;;;;7341691;19;110656;-85
2023/04/02 04:57:49;;;;;;;;;;;7.80;99.90;;;;;;7337979;19;108897;-85
2023/04/02 05:00:19;;;;;;;;;;;7.70;99.90;;;;;;7346817;19;111787;-86
2023/04/02 05:02:49;;;;;;;;;;;7.60;99.90;;;;;;7340838;19;108695;-86
2023/04/02 05:05:18;;;;;;;;;;;7.60;99.90;;;;;;7339468;19;109014;-86
2023/04/02 05:07:55;;;;;;;;;;;7.60;99.90;;;;;;7338647;19;110525;-86
2023/04/02 05:10:34;;;;;;;;;;;7.60;99.90;;;;;;7340852;19;108684;-85
2023/04/02 05:13:06;;;;;;;;;;;7.60;99.90;;;;;;7340495;19;109824;-87
2023/04/02 05:16:09;;;;;;;;;;;7.60;99.90;;;;;;7337591;19;112011;-85
2023/04/02 05:18:36;;;;;;;;;;;7.60;99.90;;;;;;7333962;19;108630;-86
2023/04/02 05:21:03;;;;;;;;;;;7.60;99.90;;;;;;7336432;19;112063;-84
2023/04/02 05:23:35;;;;;;;;;;;7.60;99.90;;;;;;7341946;19;113419;-85
2023/04/02 05:26:08;;;;;;;;;;;7.50;99.90;;;;;;7331810;19;109296;-68
2023/04/02 05:28:46;;;;;;;;;;;7.50;99.90;;;;;;7338668;19;109163;-68
2023/04/02 05:31:21;;;;;;;;;;;7.50;99.90;;;;;;7336610;19;109038;-68
2023/04/02 05:33:48;;;;;;;;;;;7.40;99.90;;;;;;7336864;19;109460;-69
2023/04/02 05:36:21;;;;;;;;;;;7.40;99.90;;;;;;7339360;19;109843;-69
2023/04/02 05:38:49;;;;;;;;;;;7.50;99.90;;;;;;7336929;19;108896;-69
2023/04/02 05:41:27;;;;;;;;;;;7.40;99.90;;;;;;7337693;19;108700;-68
2023/04/02 05:44:13;;;;;;;;;;;7.50;99.90;;;;;;7337332;19;109676;-68
2023/04/02 05:46:45;;;;;;;;;;;7.40;99.90;;;;;;7343069;19;108971;-69
2023/04/02 05:49:19;;;;;;;;;;;7.40;99.90;;;;;;7337662;19;109767;-69
2023/04/02 05:51:48;;;;;;;;;;;7.40;99.90;;;;;;7336386;19;109112;-69
2023/04/02 05:54:24;;;;;;;;;;;7.40;99.90;;;;;;7338034;19;111999;-68
2023/04/02 05:56:57;;;;;;;;;;;7.40;99.90;;;;;;7339993;19;109159;-68
2023/04/02 05:59:27;;;;;;;;;;;7.40;99.90;;;;;;7337562;19;108708;-69
2023/04/02 06:01:59;;;;;;;;;;;7.40;99.90;;;;;;7334333;19;108521;-69
2023/04/02 06:04:26;;;;;;;;;;;7.30;99.90;;;;;;7338364;19;109090;-69
2023/04/02 06:06:57;;;;;;;;;;;7.30;99.90;;;;;;7341932;19;109963;-68
2023/04/02 06:09:44;;;;;;;;;;;7.30;99.90;;;;;;7337211;19;109956;-69
2023/04/02 06:12:17;;;;;;;;;;;7.20;99.90;;;;;;7335569;19;108821;-69
2023/04/02 06:14:45;;;;;;;;;;;7.20;99.90;;;;;;7336919;19;109470;-68
2023/04/02 06:17:15;;;;;;;;;;;7.20;99.90;;;;;;7336677;19;111388;-69
2023/04/02 06:19:42;;;;;;;;;;;7.10;99.90;;;;;;7335727;19;111264;-68
2023/04/02 06:22:17;;;;;;;;;;;7.00;99.90;;;;;;7334765;19;109033;-78
2023/04/02 06:24:45;;;;;;;;;;;7.00;99.90;;;;;;7335895;19;109541;-74
2023/04/02 06:27:14;;;;;;;;;;;7.10;99.90;;;;;;7337410;19;110536;-75
2023/04/02 06:29:43;;;;;;;;;;;7.10;99.90;;;;;;7337463;19;108741;-69
2023/04/02 06:32:11;;;;;;;;;;;7.00;99.90;;;;;;7336046;19;108609;-70
2023/04/02 06:34:39;;;;;;;;;;;6.90;99.90;;;;;;7337667;19;108846;-69
2023/04/02 06:37:09;;;;;;;;;;;6.80;99.90;;;;;;7333793;19;110425;-68
2023/04/02 06:39:36;;;;;;;;;;;6.80;99.90;;;;;;7334702;19;108544;-69
2023/04/02 06:42:03;;;;;;;;;;;6.70;99.90;;;;;;7334465;19;108579;-80
2023/04/02 06:44:32;;;;;;;;;;;6.70;99.90;;;;;;7335615;19;109221;-81
2023/04/02 06:47:04;;;;;;;;;;;6.90;99.90;;;;;;7334837;19;108938;-82
2023/04/02 06:49:37;;;;;;;;;;;6.80;99.90;;;;;;7335890;19;108939;-81
2023/04/02 06:52:11;;;;;;;;;;;6.80;99.90;;;;;;7344349;19;109580;-81
2023/04/02 06:54:38;;;;;;;;;;;6.90;99.90;;;;;;7341482;19;108806;-82
2023/04/02 06:57:06;;;;;;;;;;;6.80;99.90;;;;;;7342289;19;109271;-82
2023/04/02 06:59:33;;;;;;;;;;;6.80;99.90;;;;;;7341552;19;108990;-82
2023/04/02 07:02:03;;;;;;;;;;;6.70;99.90;;;;;;7340286;19;108612;-82
2023/04/02 07:04:30;;;;;;;;;;;6.80;99.90;;;;;;7337074;19;112278;-81
2023/04/02 07:06:57;;;;;;;;;;;6.80;99.90;;;;;;7336307;19;109035;-81
2023/04/02 07:09:25;;;;;;;;;;;6.80;99.90;;;;;;7335372;19;108811;-82
2023/04/02 07:11:52;;;;;;;;;;;6.90;99.90;;;;;;7335160;19;109293;-83
2023/04/02 07:14:19;;;;;;;;;;;6.90;99.90;;;;;;7343828;19;109386;-82
2023/04/02 07:16:46;;;;;;;;;;;6.90;99.90;;;;;;7334378;19;110145;-82
2023/04/02 07:19:18;;;;;;;;;;;6.90;99.90;;;;;;7340895;19;108339;-83
2023/04/02 07:21:45;;;;;;;;;;;6.90;99.90;;;;;;7337451;19;108691;-84
2023/04/02 07:24:12;;;;;;;;;;;6.90;99.90;;;;;;7337018;19;109346;-82
2023/04/02 07:26:39;;;;;;;;;;;6.90;99.90;;;;;;7337014;19;109722;-81
2023/04/02 07:29:07;;;;;;;;;;;6.90;99.90;;;;;;7337193;19;108861;-82
2023/04/02 07:31:37;;;;;;;;;;;7.00;99.90;;;;;;7335137;19;110619;-81
2023/04/02 07:34:04;;;;;;;;;;;7.00;99.90;;;;;;7335774;19;108442;-82
2023/04/02 07:36:31;;;;;;;;;;;7.00;99.90;;;;;;7339775;19;109327;-81
2023/04/02 07:38:58;;;;;;;;;;;7.10;99.90;;;;;;7331506;19;109459;-81
2023/04/02 07:41:26;;;;;;;;;;;7.10;99.90;;;;;;7336197;19;109596;-80
2023/04/02 07:43:53;;;;;;;;;;;7.10;99.90;;;;;;7334331;19;109196;-81
2023/04/02 07:46:20;;;;;;;;;;;7.10;99.90;;;;;;7336778;19;108763;-80
2023/04/02 07:48:47;;;;;;;;;;;7.10;99.90;;;;;;7334409;19;109077;-81
2023/04/02 07:51:18;;;;;;;;;;;7.10;99.90;;;;;;7336281;19;109312;-81
2023/04/02 07:53:48;;;;;;;;;;;7.10;99.90;;;;;;7336454;19;108625;-82
2023/04/02 07:56:17;;;;;;;;;;;7.10;99.90;;;;;;7336071;19;110502;-82
2023/04/02 07:58:44;;;;;;;;;;;7.10;99.90;;;;;;7340146;19;109201;-81
2023/04/02 08:01:18;;;;;;;;;;;7.10;99.90;;;;;;7336683;19;109259;-81
2023/04/02 08:03:45;;;;;;;;;;;7.00;99.90;;;;;;7333705;19;109126;-81
2023/04/02 08:06:13;;;;;;;;;;;7.10;99.90;;;;;;7338539;19;108680;-81
2023/04/02 08:08:41;;;;;;;;;;;7.10;99.90;;;;;;7336072;19;109378;-80
2023/04/02 08:11:08;;;;;;;;;;;7.10;99.90;;;;;;7335005;19;109130;-81
2023/04/02 08:13:36;;;;;;;;;;;7.10;99.90;;;;;;7333934;19;112454;-83
2023/04/02 08:16:03;;;;;;;;;;;7.10;99.90;;;;;;7334795;19;108596;-81
2023/04/02 08:18:30;;;;;;;;;;;7.00;99.90;;;;;;7341358;19;109153;-81
2023/04/02 08:20:57;;;;;;;;;;;7.00;99.90;;;;;;7335651;19;108684;-82
2023/04/02 08:23:25;;;;;;;;;;;7.00;99.90;;;;;;7335511;19;109552;-80
2023/04/02 08:25:53;;;;;;;;;;;7.00;99.90;;;;;;7332752;19;108462;-81
2023/04/02 08:28:21;;;;;;;;;;;6.90;99.90;;;;;;7338500;19;108255;-80
2023/04/02 08:30:48;;;;;;;;;;;6.90;99.90;;;;;;7333751;19;110839;-80
2023/04/02 08:33:16;;;;;;;;;;;6.90;99.90;;;;;;7336046;19;108877;-82
2023/04/02 08:35:44;;;;;;;;;;;6.90;99.90;;;;;;7335723;19;108353;-82
2023/04/02 08:38:13;;;;;;;;;;;6.90;99.90;;;;;;7335522;19;110549;-81
2023/04/02 08:40:42;;;;;;;;;;;6.90;99.90;;;;;;7340661;19;108638;-81
2023/04/02 08:43:12;;;;;;;;;;;6.80;99.90;;;;;;7333948;19;109429;-82
2023/04/02 08:45:55;;;;;;;;;;;6.90;99.90;;;;;;7334112;19;108698;-80
2023/04/02 08:48:23;;;;;;;;;;;6.90;99.90;;;;;;7335800;19;109054;-81
2023/04/02 08:50:50;;;;;;;;;;;6.80;99.90;;;;;;7333943;19;109595;-82
2023/04/02 08:53:20;;;;;;;;;;;6.90;99.90;;;;;;7334466;19;110478;-82
2023/04/02 08:56:04;;;;;;;;;;;6.80;99.90;;;;;;7334328;19;108766;-81
2023/04/02 08:58:40;;;;;;;;;;;6.80;99.90;;;;;;7333009;19;109163;-81
2023/04/02 09:01:17;;;;;;;;;;;6.80;99.90;;;;;;7334395;19;109088;-81
2023/04/02 09:03:46;;;;;;;;;;;6.90;99.90;;;;;;7338337;19;108913;-81
2023/04/02 09:06:16;;;;;;;;;;;7.00;99.90;;;;;;7334224;19;108692;-81
2023/04/02 09:08:45;;;;;;;;;;;7.10;99.90;;;;;;7333454;19;109386;-81
2023/04/02 09:11:12;;;;;;;;;;;7.00;99.90;;;;;;7331945;19;109744;-82
2023/04/02 09:13:41;;;;;;;;;;;7.00;99.90;;;;;;7334505;19;108849;-82
2023/04/02 09:16:09;;;;;;;;;;;7.00;99.90;;;;;;7334086;19;108959;-80
2023/04/02 09:18:37;;;;;;;;;;;7.00;99.90;;;;;;7331525;19;109779;-81
2023/04/02 09:21:17;;;;;;;;;;;6.90;99.90;;;;;;7332437;19;108630;-81
2023/04/02 09:23:44;;;;;;;;;;;6.70;99.90;;;;;;7335173;19;110115;-82
2023/04/02 09:26:31;;;;;;;;;;;6.80;99.90;;;;;;7338534;19;109575;-82
2023/04/02 09:29:00;;;;;;;;;;;6.90;99.90;;;;;;7333196;19;109693;-82
2023/04/02 09:31:34;;;;;;;;;;;6.80;99.90;;;;;;7336317;19;109541;-83
2023/04/02 09:34:21;;;;;;;;;;;6.80;99.90;;;;;;7331692;19;109504;-82
2023/04/02 09:36:49;;;;;;;;;;;6.70;99.90;;;;;;7329763;19;110349;-81
2023/04/02 09:39:17;;;;;;;;;;;6.80;99.90;;;;;;7342002;19;109204;-81
2023/04/02 09:41:45;;;;;;;;;;;6.90;99.90;;;;;;7341618;19;109231;-80
2023/04/02 09:44:30;;;;;;;;;;;7.00;99.90;;;;;;7341699;19;108586;-81
2023/04/02 09:47:02;;;;;;;;;;;7.00;99.90;;;;;;7340503;19;109965;-81
2023/04/02 09:49:38;;;;;;;;;;;7.10;99.90;;;;;;7345220;19;108858;-81
2023/04/02 09:52:26;;;;;;;;;;;7.10;99.90;;;;;;7340259;19;109117;-83
2023/04/02 09:55:11;;;;;;;;;;;7.20;99.90;;;;;;7339654;19;108708;-81
2023/04/02 09:57:38;;;;;;;;;;;7.30;99.90;;;;;;7340499;19;109564;-80
2023/04/02 10:00:17;;;;;;;;;;;7.30;99.90;;;;;;7345241;19;109467;-80
2023/04/02 10:03:03;;;;;;;;;;;7.30;99.90;;;;;;7346001;19;108883;-81
2023/04/02 10:05:31;;;;;;;;;;;7.40;99.90;;;;;;7344344;19;110297;-80
2023/04/02 10:08:08;;;;;;;;;;;7.60;99.90;;;;;;7342127;19;109130;-82
2023/04/02 10:10:41;;;;;;;;;;;7.60;99.90;;;;;;7341884;19;109257;-81
2023/04/02 10:13:21;;;;;;;;;;;7.60;99.90;;;;;;7339564;19;108392;-82
2023/04/02 10:15:54;;;;;;;;;;;7.60;99.90;;;;;;7340583;19;108453;-81
2023/04/02 10:18:27;;;;;;;;;;;7.50;99.90;;;;;;7341251;19;108630;-82
2023/04/02 10:20:55;;;;;;;;;;;7.60;99.90;;;;;;7335052;19;109332;-81
2023/04/02 10:23:26;;;;;;;;;;;7.60;99.90;;;;;;7339937;19;108978;-82
2023/04/02 10:26:08;;;;;;;;;;;7.50;99.90;;;;;;7336606;19;108782;-83
2023/04/02 10:28:53;;;;;;;;;;;7.60;99.90;;;;;;7339057;19;110870;-82
2023/04/02 10:31:24;;;;;;;;;;;7.60;99.90;;;;;;7339801;19;108582;-82
2023/04/02 10:33:59;;;;;;;;;;;7.60;99.90;;;;;;7346026;19;108995;-83
2023/04/02 10:36:34;;;;;;;;;;;7.50;99.90;;;;;;7339301;19;108626;-83
2023/04/02 10:39:07;;;;;;;;;;;7.50;99.90;;;;;;7337275;19;108598;-83
2023/04/02 10:41:53;;;;;;;;;;;7.50;99.90;;;;;;7338166;19;109427;-83
2023/04/02 10:44:20;;;;;;;;;;;7.60;99.90;;;;;;7336968;19;109404;-82
2023/04/02 10:46:50;;;;;;;;;;;7.60;99.90;;;;;;7334682;19;109530;-81
2023/04/02 10:49:17;;;;;;;;;;;7.50;99.90;;;;;;7339594;19;108916;-81
2023/04/02 10:52:12;;;;;;;;;;;7.50;99.90;;;;;;7336235;19;108989;-81
2023/04/02 10:54:42;;;;;;;;;;;7.50;99.90;;;;;;7336732;19;111798;-81
2023/04/02 10:57:13;;;;;;;;;;;7.50;99.90;;;;;;7343394;19;109201;-81
2023/04/02 10:59:43;;;;;;;;;;;7.50;99.90;;;;;;7335457;19;109030;-82
2023/04/02 11:02:21;;;;;;;;;;;7.50;99.90;;;;;;7333712;19;110635;-81
2023/04/02 11:04:49;;;;;;;;;;;7.60;99.90;;;;;;7336841;19;109390;-82
2023/04/02 11:07:18;;;;;;;;;;;7.60;99.90;;;;;;7336258;19;108366;-81
2023/04/02 11:09:46;;;;;;;;;;;7.40;99.90;;;;;;7338885;19;109778;-81
2023/04/02 11:12:32;;;;;;;;;;;7.40;99.90;;;;;;7337283;19;110624;-81
2023/04/02 11:15:01;;;;;;;;;;;7.50;99.90;;;;;;7337117;19;108274;-81
2023/04/02 11:17:28;;;;;;;;;;;7.60;99.90;;;;;;7337836;19;109418;-81
2023/04/02 11:20:15;;;;;;;;;;;7.70;99.90;;;;;;7342057;19;109464;-81
2023/04/02 11:22:42;;;;;;;;;;;7.70;99.90;;;;;;7336175;19;110580;-81
2023/04/02 11:25:20;;;;;;;;;;;7.60;99.90;;;;;;7337797;19;109888;-82
2023/04/02 11:27:47;;;;;;;;;;;7.60;99.90;;;;;;7337155;19;109420;-82
2023/04/02 11:30:15;;;;;;;;;;;7.60;99.90;;;;;;7334037;19;109844;-82
2023/04/02 11:32:44;;;;;;;;;;;7.60;99.90;;;;;;7334335;19;110131;-81
2023/04/02 11:35:24;;;;;;;;;;;7.60;99.90;;;;;;7334234;19;109319;-81
2023/04/02 11:37:53;;;;;;;;;;;7.50;99.90;;;;;;7335379;19;109408;-80
2023/04/02 11:40:39;;;;;;;;;;;7.50;99.90;;;;;;7332896;19;108753;-81
2023/04/02 11:43:24;;;;;;;;;;;7.50;99.90;;;;;;7340228;19;110849;-82
2023/04/02 11:45:53;;;;;;;;;;;7.50;99.90;;;;;;7334108;19;109095;-81
2023/04/02 11:48:21;;;;;;;;;;;7.50;99.90;;;;;;7335430;19;110404;-81
2023/04/02 11:50:48;;;;;;;;;;;7.50;99.90;;;;;;7334800;19;109148;-80
2023/04/02 11:53:15;;;;;;;;;;;7.60;99.90;;;;;;7334928;19;109952;-81
2023/04/02 11:56:03;;;;;;;;;;;7.50;99.90;;;;;;7337150;19;109708;-80
2023/04/02 11:58:45;;;;;;;;;;;7.50;99.90;;;;;;7335113;19;110030;-79
2023/04/02 12:01:24;;;;;;;;;;;7.60;99.90;;;;;;7335622;19;108812;-80
2023/04/02 12:04:16;;;;;;;;;;;7.50;99.90;;;;;;7336731;19;109553;-80
2023/04/02 12:06:46;;;;;;;;;;;7.50;99.90;;;;;;7341243;19;109403;-80
2023/04/02 12:09:23;;;;;;;;;;;7.50;99.90;;;;;;7334124;19;108660;-65
2023/04/02 12:11:51;;;;;;;;;;;7.50;99.90;;;;;;7334977;19;109089;-77
2023/04/02 12:14:27;;;;;;;;;;;7.40;99.90;;;;;;7332992;19;109218;-71
2023/04/02 12:16:55;;;;;;;;;;;7.40;99.90;;;;;;7330660;19;110194;-69
2023/04/02 12:19:23;;;;;;;;;;;7.50;99.90;;;;;;7330141;19;109595;-70
2023/04/02 12:21:51;;;;;;;;;;;7.50;99.90;;;;;;7337542;19;108779;-69
2023/04/02 12:24:20;;;;;;;;;;;7.40;99.90;;;;;;7330714;19;108770;-70
2023/04/02 12:26:47;;;;;;;;;;;7.40;99.90;;;;;;7333242;19;109113;-70
2023/04/02 12:29:14;;;;;;;;;;;7.50;99.90;;;;;;7337305;19;110002;-70
2023/04/02 12:31:45;;;;;;;;;;;7.50;99.90;;;;;;7335066;19;114098;-71
2023/04/02 12:34:16;;;;;;;;;;;7.50;99.90;;;;;;7332802;19;108652;-70
2023/04/02 12:36:54;;;;;;;;;;;7.50;99.90;;;;;;7332424;19;108829;-74
2023/04/02 12:39:22;;;;;;;;;;;7.50;99.90;;;;;;7335090;19;110961;-74
2023/04/02 12:41:52;;;;;;;;;;;7.50;99.90;;;;;;7334583;19;109140;-78
2023/04/02 12:44:20;;;;;;;;;;;7.50;99.90;;;;;;7334869;19;109805;-73
2023/04/02 12:46:48;;;;;;;;;;;7.50;99.90;;;;;;7335578;19;109105;-71
2023/04/02 12:49:24;;;;;;;;;;;7.50;99.90;;;;;;7340057;19;108677;-72
2023/04/02 12:51:52;;;;;;;;;;;7.70;99.90;;;;;;7335411;19;110225;-72
2023/04/02 12:54:19;;;;;;;;;;;7.80;99.90;;;;;;7335616;19;108399;-72
2023/04/02 12:56:47;;;;;;;;;;;7.80;99.90;;;;;;7334931;19;112760;-72
2023/04/02 12:59:34;;;;;;;;;;;7.90;99.90;;;;;;7336459;19;109187;-71
2023/04/02 13:02:13;;;;;;;;;;;8.00;99.90;;;;;;7335036;19;109685;-73
2023/04/02 13:04:48;;;;;;;;;;;8.00;99.90;;;;;;7334766;19;109463;-72
2023/04/02 13:07:16;;;;;;;;;;;8.00;99.90;;;;;;7334093;19;109154;-71
2023/04/02 13:09:50;;;;;;;;;;;8.20;99.90;;;;;;7333018;19;108453;-71
2023/04/02 13:12:23;;;;;;;;;;;8.00;99.90;;;;;;7344930;19;108617;-70
2023/04/02 13:14:52;;;;;;;;;;;8.00;99.90;;;;;;7339195;19;108267;-71
2023/04/02 13:17:38;;;;;;;;;;;7.90;99.90;;;;;;7343948;19;108667;-71
2023/04/02 13:20:40;;;;;;;;;;;7.90;99.90;;;;;;7341329;19;109158;-70
2023/04/02 13:23:23;;;;;;;;;;;7.90;99.90;;;;;;7337624;19;110775;-71
2023/04/02 13:25:50;;;;;;;;;;;7.90;99.90;;;;;;7335425;19;108991;-70
2023/04/02 13:28:18;;;;;;;;;;;8.00;99.90;;;;;;7335586;19;109356;-70
2023/04/02 13:30:45;;;;;;;;;;;8.00;99.90;;;;;;7333699;19;110312;-71
2023/04/02 13:33:13;;;;;;;;;;;8.10;99.90;;;;;;7335412;19;109324;-72
2023/04/02 13:35:40;;;;;;;;;;;8.10;99.90;;;;;;7337900;19;109348;-71
2023/04/02 13:38:08;;;;;;;;;;;8.20;99.90;;;;;;7334835;19;112119;-70
2023/04/02 13:40:39;;;;;;;;;;;8.20;99.90;;;;;;7332460;19;112611;-79
2023/04/02 13:43:07;;;;;;;;;;;8.20;99.90;;;;;;7336319;19;108555;-68
2023/04/02 13:45:36;;;;;;;;;;;8.20;99.90;;;;;;7340061;19;109681;-68
2023/04/02 13:48:04;;;;;;;;;;;8.30;99.90;;;;;;7334563;19;109365;-68
2023/04/02 13:50:33;;;;;;;;;;;8.20;99.90;;;;;;7337991;19;112086;-68
2023/04/02 13:53:06;;;;;;;;;;;8.20;99.90;;;;;;7335378;19;108818;-67
2023/04/02 13:55:38;;;;;;;;;;;8.30;99.90;;;;;;7334451;19;109886;-67
2023/04/02 13:58:05;;;;;;;;;;;8.20;99.90;;;;;;7345090;19;109130;-68
2023/04/02 14:00:35;;;;;;;;;;;8.20;99.90;;;;;;7336807;19;109970;-68
2023/04/02 14:03:08;;;;;;;;;;;8.20;99.90;;;;;;7338207;19;109134;-68
2023/04/02 14:05:54;;;;;;;;;;;8.10;99.90;;;;;;7338842;19;109306;-68
2023/04/02 14:08:27;;;;;;;;;;;8.00;99.90;;;;;;7331476;19;110232;-68
2023/04/02 14:11:12;;;;;;;;;;;8.10;99.90;;;;;;7336453;19;109026;-68
2023/04/02 14:14:06;;;;;;;;;;;8.20;99.90;;;;;;7330673;19;109385;-69
2023/04/02 14:16:51;;;;;;;;;;;8.20;99.90;;;;;;7331137;19;110311;-68
2023/04/02 14:19:33;;;;;;;;;;;8.10;99.90;;;;;;7333537;19;108979;-68
2023/04/02 14:22:00;;;;;;;;;;;8.00;99.90;;;;;;7343007;19;109075;-68
2023/04/02 14:24:33;;;;;;;;;;;8.10;99.90;;;;;;7335039;19;109336;-68
2023/04/02 14:27:07;;;;;;;;;;;8.20;99.90;;;;;;7340039;19;108762;-68
2023/04/02 14:29:40;;;;;;;;;;;8.20;99.90;;;;;;7337194;19;111918;-68
2023/04/02 14:32:13;;;;;;;;;;;8.10;99.90;;;;;;7337329;19;109028;-69
2023/04/02 14:34:40;;;;;;;;;;;8.10;99.90;;;;;;7335399;19;108371;-68
2023/04/02 14:37:13;;;;;;;;;;;8.10;99.90;;;;;;7335952;19;111296;-68
2023/04/02 14:39:43;;;;;;;;;;;8.10;99.90;;;;;;7337606;19;108942;-68
2023/04/02 14:42:15;;;;;;;;;;;8.10;99.90;;;;;;7343055;19;108326;-68
2023/04/02 14:44:50;;;;;;;;;;;8.30;99.90;;;;;;7336595;19;108750;-68